createdAt,value
2019-02-19T00:00:56.482Z,78.44
2019-02-19T00:03:38.597Z,78.57
2019-02-19T00:06:15.897Z,78.60
2019-02-19T00:08:51.636Z,78.46
2019-02-19T00:11:39.618Z,78.45
2019-02-19T00:14:15.376Z,78.58
2019-02-19T00:16:50.321Z,78.54
2019-02-19T00:19:25.268Z,78.86
2019-02-19T00:22:01.070Z,78.60
2019-02-19T00:24:35.837Z,78.51
2019-02-19T00:27:10.751Z,78.74
2019-02-19T00:29:45.876Z,78.37
2019-02-19T00:32:21.688Z,78.48
2019-02-19T00:34:58.984Z,78.46
2019-02-19T00:37:34.746Z,78.81
2019-02-19T00:40:09.671Z,79.03
2019-02-19T00:42:53.629Z,78.77
2019-02-19T00:45:28.455Z,79.27
2019-02-19T00:48:04.200Z,79.20
2019-02-19T00:50:39.976Z,79.07
2019-02-19T00:53:21.958Z,79.21
2019-02-19T00:55:57.692Z,79.47
2019-02-19T00:58:33.458Z,79.46
2019-02-19T01:01:08.344Z,79.70
2019-02-19T01:03:43.243Z,79.69
2019-02-19T01:06:18.061Z,79.39
2019-02-19T01:08:52.970Z,79.60
2019-02-19T01:11:27.846Z,79.96
2019-02-19T01:14:02.774Z,79.67
2019-02-19T01:16:37.656Z,79.60
2019-02-19T01:19:12.568Z,79.69
2019-02-19T01:21:47.368Z,78.95
2019-02-19T01:24:22.511Z,78.61
2019-02-19T01:26:57.414Z,78.41
2019-02-19T01:29:32.538Z,77.86
2019-02-19T01:32:07.562Z,77.74
2019-02-19T01:34:43.347Z,77.59
2019-02-19T01:37:18.268Z,77.41
2019-02-19T01:39:53.182Z,77.47
2019-02-19T01:42:28.114Z,77.10
2019-02-19T01:45:03.060Z,77.54
2019-02-19T01:47:37.958Z,77.67
2019-02-19T01:50:12.860Z,78.57
2019-02-19T01:52:48.618Z,78.36
2019-02-19T01:55:25.178Z,79.16
2019-02-19T01:58:00.198Z,80.91
2019-02-19T02:00:35.556Z,81.75
2019-02-19T02:03:10.320Z,82.46
2019-02-19T02:05:45.405Z,82.73
2019-02-19T02:08:21.110Z,83.27
2019-02-19T02:10:56.008Z,83.29
2019-02-19T02:13:30.998Z,83.15
2019-02-19T02:16:06.744Z,83.13
2019-02-19T02:18:41.579Z,83.76
2019-02-19T02:21:16.475Z,83.61
2019-02-19T02:23:52.196Z,84.29
2019-02-19T02:26:27.126Z,84.40
2019-02-19T02:29:02.001Z,84.81
2019-02-19T02:31:37.752Z,84.64
2019-02-19T02:34:13.501Z,84.96
2019-02-19T02:36:48.786Z,84.73
2019-02-19T02:39:23.682Z,84.78
2019-02-19T02:41:58.589Z,85.16
2019-02-19T02:44:36.126Z,85.35
2019-02-19T02:47:11.064Z,85.41
2019-02-19T02:49:46.014Z,85.34
2019-02-19T02:52:20.936Z,85.63
2019-02-19T02:54:55.860Z,86.00
2019-02-19T02:57:36.328Z,86.49
2019-02-19T03:00:13.589Z,86.49
2019-02-19T03:02:48.577Z,86.75
2019-02-19T03:05:25.315Z,87.05
2019-02-19T03:08:03.563Z,87.35
2019-02-19T03:10:40.970Z,87.24
2019-02-19T03:13:17.806Z,87.99
2019-02-19T03:16:01.918Z,88.03
2019-02-19T03:18:42.459Z,88.00
2019-02-19T03:21:17.340Z,87.93
2019-02-19T03:23:52.567Z,87.72
2019-02-19T03:26:27.633Z,87.87
2019-02-19T03:29:02.612Z,88.40
2019-02-19T03:31:37.548Z,88.26
2019-02-19T03:34:12.489Z,88.18
2019-02-19T03:36:47.439Z,88.33
2019-02-19T03:39:22.363Z,88.53
2019-02-19T03:41:57.230Z,88.45
2019-02-19T03:44:32.119Z,88.30
2019-02-19T03:47:08.091Z,88.16
2019-02-19T03:49:43.190Z,88.39
2019-02-19T03:52:18.064Z,88.77
2019-02-19T03:54:53.108Z,88.90
2019-02-19T03:57:28.018Z,88.62
2019-02-19T04:00:04.030Z,89.33
2019-02-19T04:02:38.936Z,89.38
2019-02-19T04:05:16.315Z,89.70
2019-02-19T04:07:52.032Z,90.09
2019-02-19T04:10:27.802Z,89.80
2019-02-19T04:13:03.861Z,89.86
2019-02-19T04:15:56.878Z,89.89
2019-02-19T04:18:35.247Z,89.79
2019-02-19T04:21:20.358Z,89.68
2019-02-19T04:23:57.659Z,89.86
2019-02-19T04:26:49.736Z,90.02
2019-02-19T04:29:27.041Z,89.97
2019-02-19T04:32:02.846Z,89.86
2019-02-19T04:34:40.183Z,89.53
2019-02-19T04:37:15.969Z,89.75
2019-02-19T04:39:51.694Z,89.59
2019-02-19T04:42:28.038Z,89.54
2019-02-19T04:45:03.859Z,89.31
2019-02-19T04:47:39.653Z,89.55
2019-02-19T04:50:14.763Z,89.32
2019-02-19T04:52:50.682Z,89.06
2019-02-19T04:55:25.534Z,89.00
2019-02-19T04:58:01.427Z,89.11
2019-02-19T05:00:36.303Z,89.10
2019-02-19T05:03:12.084Z,88.99
2019-02-19T05:05:47.909Z,88.82
2019-02-19T05:08:23.676Z,88.49
2019-02-19T05:10:59.381Z,88.37
2019-02-19T05:13:35.137Z,88.30
2019-02-19T05:16:11.071Z,88.37
2019-02-19T05:19:04.175Z,88.33
2019-02-19T05:21:39.103Z,88.07
2019-02-19T05:24:14.906Z,87.82
2019-02-19T05:26:50.659Z,87.80
2019-02-19T05:29:33.711Z,87.71
2019-02-19T05:32:09.491Z,87.69
2019-02-19T05:34:45.316Z,87.71
2019-02-19T05:37:21.152Z,87.57
2019-02-19T05:39:56.170Z,87.43
2019-02-19T05:42:54.787Z,87.83
2019-02-19T05:45:30.581Z,87.40
2019-02-19T05:48:06.288Z,87.25
2019-02-19T05:50:42.112Z,87.51
2019-02-19T05:53:45.078Z,87.21
2019-02-19T05:56:45.272Z,87.09
2019-02-19T05:59:20.146Z,87.17
2019-02-19T06:01:56.301Z,86.91
2019-02-19T06:04:38.597Z,86.88
2019-02-19T06:07:14.364Z,86.80
2019-02-19T06:09:51.140Z,86.45
2019-02-19T06:12:28.152Z,86.52
2019-02-19T06:15:03.997Z,86.89
2019-02-19T06:17:39.755Z,86.77
2019-02-19T06:20:15.581Z,86.71
2019-02-19T06:22:52.283Z,86.50
2019-02-19T06:25:30.167Z,86.26
2019-02-19T06:28:06.040Z,86.39
2019-02-19T06:31:00.232Z,86.41
2019-02-19T06:33:37.051Z,86.37
2019-02-19T06:36:16.049Z,86.05
2019-02-19T06:39:09.337Z,86.09
2019-02-19T06:41:46.707Z,86.23
2019-02-19T06:44:22.433Z,86.42
2019-02-19T06:50:55.281Z,86.69
2019-02-19T06:53:30.209Z,86.99
2019-02-19T06:56:11.807Z,86.82
2019-02-19T07:03:27.559Z,86.49
2019-02-19T07:06:04.716Z,86.56
2019-02-19T07:08:46.223Z,86.30
2019-02-19T07:11:21.961Z,86.26
2019-02-19T07:13:57.743Z,85.96
2019-02-19T07:16:33.919Z,85.75
2019-02-19T07:19:10.049Z,86.25
2019-02-19T07:21:45.291Z,86.02
2019-02-19T07:24:20.441Z,85.82
2019-02-19T07:26:55.501Z,85.64
2019-02-19T07:29:31.771Z,85.71
2019-02-19T07:32:06.744Z,85.50
2019-02-19T07:35:30.555Z,85.63
2019-02-19T07:38:07.090Z,85.73
2019-02-19T07:40:45.638Z,86.02
2019-02-19T07:43:21.812Z,85.57
2019-02-19T07:45:57.646Z,85.37
2019-02-19T07:48:34.397Z,85.28
2019-02-19T07:51:10.344Z,85.14
2019-02-19T07:53:45.206Z,85.20
2019-02-19T07:56:20.691Z,85.03
2019-02-19T07:58:55.761Z,84.84
2019-02-19T08:01:31.611Z,84.40
2019-02-19T08:04:06.497Z,84.20
2019-02-19T08:06:42.488Z,83.99
2019-02-19T08:09:23.637Z,83.37
2019-02-19T08:12:04.820Z,83.02
2019-02-19T08:14:42.539Z,82.74
2019-02-19T08:17:17.631Z,82.76
2019-02-19T08:20:15.912Z,82.36
2019-02-19T08:22:48.232Z,82.36
2019-02-19T08:25:25.225Z,82.62
2019-02-19T08:28:01.565Z,82.35
2019-02-19T08:30:36.869Z,82.34
2019-02-19T08:33:13.634Z,81.69
2019-02-19T08:35:50.061Z,82.06
2019-02-19T08:38:27.387Z,81.66
2019-02-19T08:41:02.803Z,81.68
2019-02-19T08:43:37.814Z,81.35
2019-02-19T08:46:13.577Z,80.77
2019-02-19T08:52:49.553Z,81.09
2019-02-19T08:55:25.297Z,80.76
2019-02-19T09:01:31.291Z,79.98
2019-02-19T09:04:12.837Z,80.02
2019-02-19T09:06:48.029Z,79.87
2019-02-19T09:09:24.171Z,79.81
2019-02-19T09:11:59.471Z,80.63
2019-02-19T09:14:35.600Z,80.75
2019-02-19T09:17:12.313Z,80.58
2019-02-19T09:19:56.248Z,80.49
2019-02-19T09:22:36.937Z,80.44
2019-02-19T09:25:11.857Z,80.31
2019-02-19T09:27:47.773Z,79.93
2019-02-19T09:30:22.917Z,80.12
2019-02-19T09:33:06.731Z,79.38
2019-02-19T09:36:09.147Z,79.58
2019-02-19T09:38:44.588Z,80.43
2019-02-19T09:41:19.467Z,79.49
2019-02-19T09:43:57.355Z,79.25
2019-02-19T09:46:35.063Z,78.97
2019-02-19T09:49:10.605Z,79.12
2019-02-19T09:51:50.506Z,79.02
2019-02-19T09:54:25.538Z,78.98
2019-02-19T09:57:01.764Z,78.91
2019-02-19T09:59:36.799Z,78.82
2019-02-19T10:02:12.538Z,78.36
2019-02-19T10:04:47.824Z,78.80
2019-02-19T10:07:24.373Z,78.61
2019-02-19T10:09:59.759Z,78.53
2019-02-19T10:12:35.087Z,78.24
2019-02-19T10:15:22.115Z,78.08
2019-02-19T10:17:59.517Z,77.69
2019-02-19T10:20:38.500Z,78.28
2019-02-19T10:23:13.839Z,77.89
2019-02-19T10:25:49.441Z,78.25
2019-02-19T10:28:24.460Z,78.43
2019-02-19T10:30:59.354Z,78.46
2019-02-19T10:33:36.328Z,78.15
2019-02-19T10:36:11.496Z,78.16
2019-02-19T10:42:12.845Z,77.85
2019-02-19T10:44:48.244Z,77.87
2019-02-19T10:47:23.306Z,77.15
2019-02-19T10:50:24.517Z,76.93
2019-02-19T10:53:00.698Z,77.56
2019-02-19T10:55:36.923Z,77.59
2019-02-19T10:58:22.503Z,77.24
2019-02-19T11:00:54.296Z,76.24
2019-02-19T11:03:30.226Z,76.25
2019-02-19T11:06:05.262Z,76.40
2019-02-19T11:08:40.193Z,75.60
2019-02-19T11:11:16.087Z,76.20
2019-02-19T11:13:51.287Z,76.51
2019-02-19T11:16:29.510Z,76.92
2019-02-19T11:19:04.946Z,76.87
2019-02-19T11:21:41.179Z,76.53
2019-02-19T11:24:16.351Z,76.56
2019-02-19T11:26:51.494Z,75.76
2019-02-19T11:29:28.026Z,76.20
2019-02-19T11:32:04.349Z,75.94
2019-02-19T11:34:40.459Z,75.87
2019-02-19T11:37:15.702Z,76.11
2019-02-19T11:39:50.644Z,75.51
2019-02-19T11:42:28.514Z,76.02
2019-02-19T11:45:04.755Z,77.01
2019-02-19T11:47:39.774Z,76.61
2019-02-19T11:50:21.651Z,77.19
2019-02-19T11:52:59.010Z,76.94
2019-02-19T11:55:34.893Z,76.68
2019-02-19T11:58:10.122Z,75.98
2019-02-19T12:00:45.598Z,75.83
2019-02-19T12:03:20.576Z,75.55
2019-02-19T12:05:56.319Z,75.01
2019-02-19T12:08:38.846Z,74.44
2019-02-19T12:11:08.847Z,74.14
2019-02-19T12:13:44.624Z,74.94
2019-02-19T12:16:21.728Z,75.16
2019-02-19T12:18:57.194Z,75.30
2019-02-19T12:21:32.946Z,75.32
2019-02-19T12:24:10.484Z,75.49
2019-02-19T12:26:45.634Z,76.04
2019-02-19T12:29:30.912Z,75.13
2019-02-19T12:32:05.908Z,74.76
2019-02-19T12:34:40.884Z,73.58
2019-02-19T12:37:15.778Z,71.97
2019-02-19T12:39:51.616Z,72.50
2019-02-19T12:42:27.242Z,73.31
2019-02-19T12:45:02.756Z,74.44
2019-02-19T12:47:38.632Z,75.07
2019-02-19T12:50:14.756Z,74.63
2019-02-19T12:52:50.161Z,74.12
2019-02-19T12:55:26.110Z,73.40
2019-02-19T12:58:01.051Z,74.23
2019-02-19T13:00:36.570Z,74.19
2019-02-19T13:03:11.638Z,74.82
2019-02-19T13:05:46.521Z,74.59
2019-02-19T13:08:22.196Z,75.68
2019-02-19T13:10:57.134Z,75.25
2019-02-19T13:13:31.977Z,75.72
2019-02-19T13:16:07.952Z,76.35
2019-02-19T13:18:43.812Z,76.09
2019-02-19T13:21:18.714Z,76.41
2019-02-19T13:23:54.434Z,76.29
2019-02-19T13:26:30.294Z,76.50
2019-02-19T13:29:05.185Z,76.53
2019-02-19T13:31:41.656Z,76.38
2019-02-19T13:34:17.377Z,76.34
2019-02-19T13:36:53.164Z,76.18
2019-02-19T13:39:28.098Z,77.12
2019-02-19T13:42:04.566Z,79.89
2019-02-19T13:44:40.298Z,81.17
2019-02-19T13:47:51.244Z,83.18
2019-02-19T13:50:27.016Z,83.46
2019-02-19T13:53:15.706Z,84.63
2019-02-19T13:55:53.327Z,85.36
2019-02-19T13:58:28.360Z,85.11
2019-02-19T14:01:10.718Z,84.38
2019-02-19T14:03:45.736Z,84.68
2019-02-19T14:06:21.514Z,84.29
2019-02-19T14:08:56.435Z,84.92
2019-02-19T14:11:31.504Z,85.29
2019-02-19T14:14:23.926Z,86.44
2019-02-19T14:17:02.922Z,86.71
2019-02-19T14:19:41.945Z,86.93
2019-02-19T14:22:30.246Z,87.55
2019-02-19T14:25:24.500Z,87.10
2019-02-19T14:31:27.978Z,87.38
2019-02-19T14:35:15.546Z,87.19
2019-02-19T14:38:24.316Z,87.04
2019-02-19T14:41:19.124Z,86.29
2019-02-19T14:48:19.548Z,85.80
2019-02-19T14:51:13.384Z,85.39
2019-02-19T14:54:03.608Z,85.19
2019-02-19T14:56:58.170Z,85.23
2019-02-19T14:59:52.794Z,85.24
2019-02-19T15:02:53.039Z,85.87
2019-02-19T15:05:46.774Z,85.50
2019-02-19T15:08:29.582Z,85.25
2019-02-19T15:11:29.015Z,84.47
2019-02-19T15:18:02.480Z,84.97
2019-02-19T15:21:00.687Z,86.50
2019-02-19T15:23:49.975Z,87.09
2019-02-19T15:30:09.120Z,86.61
2019-02-19T15:33:00.406Z,86.55
2019-02-19T15:42:24.636Z,86.54
2019-02-19T15:45:30.819Z,86.83
2019-02-19T15:48:44.152Z,87.26
2019-02-19T15:51:32.533Z,87.10
2019-02-19T15:54:17.866Z,86.88
2019-02-19T15:57:11.717Z,86.97
2019-02-19T16:00:09.260Z,86.75
2019-02-19T16:03:15.704Z,86.41
2019-02-19T16:06:09.395Z,86.18
2019-02-19T16:09:03.296Z,86.30
2019-02-19T16:11:59.409Z,84.98
2019-02-19T16:14:41.234Z,85.91
2019-02-19T16:17:33.126Z,85.95
2019-02-19T16:20:33.782Z,85.42
2019-02-19T16:23:32.447Z,85.17
2019-02-19T16:26:18.804Z,85.48
2019-02-19T16:29:11.664Z,85.07
2019-02-19T16:32:11.899Z,85.08
2019-02-19T16:34:52.011Z,85.32
2019-02-19T16:37:38.530Z,84.99
2019-02-19T16:40:36.226Z,84.82
2019-02-19T16:43:42.376Z,84.60
2019-02-19T16:46:34.768Z,84.52
2019-02-19T16:49:25.629Z,84.35
2019-02-19T16:52:10.313Z,84.47
2019-02-19T16:54:54.122Z,83.76
2019-02-19T16:57:52.228Z,84.03
2019-02-19T17:00:41.036Z,84.19
2019-02-19T17:03:35.849Z,83.84
2019-02-19T17:06:35.726Z,84.20
2019-02-19T17:09:39.595Z,84.35
2019-02-19T17:12:38.826Z,84.25
2019-02-19T17:15:33.219Z,84.65
2019-02-19T17:19:27.888Z,84.48
2019-02-19T17:22:22.504Z,84.57
2019-02-19T17:25:28.756Z,85.22
2019-02-19T17:28:34.533Z,84.65
2019-02-19T17:31:32.118Z,84.38
2019-02-19T17:38:30.228Z,84.09
2019-02-19T17:41:27.603Z,83.92
2019-02-19T17:44:20.384Z,84.20
2019-02-19T17:47:14.477Z,84.56
2019-02-19T17:50:08.515Z,84.28
2019-02-19T17:53:04.492Z,84.01
2019-02-19T17:55:57.777Z,84.09
2019-02-19T17:58:58.439Z,84.16
2019-02-19T18:01:56.149Z,83.93
2019-02-19T18:07:50.292Z,83.61
2019-02-19T18:10:40.009Z,83.41
2019-02-19T18:13:31.506Z,83.53
2019-02-19T18:16:19.274Z,83.53
2019-02-19T18:18:54.316Z,83.32
2019-02-19T18:21:48.945Z,83.39
2019-02-19T18:28:05.504Z,83.20
2019-02-19T18:30:40.403Z,83.47
2019-02-19T18:33:15.321Z,83.44
2019-02-19T18:35:50.321Z,83.05
2019-02-19T18:38:25.220Z,83.33
2019-02-19T18:41:00.159Z,83.46
2019-02-19T18:43:36.020Z,84.16
2019-02-19T18:46:11.869Z,83.60
2019-02-19T18:48:47.741Z,83.52
2019-02-19T18:51:22.679Z,83.64
2019-02-19T18:53:59.756Z,84.09
2019-02-19T18:56:34.816Z,83.80
2019-02-19T18:59:09.696Z,83.53
2019-02-19T19:01:44.759Z,83.76
2019-02-19T19:04:19.647Z,83.62
2019-02-19T19:06:54.699Z,83.90
2019-02-19T19:09:32.741Z,83.73
2019-02-19T19:12:07.729Z,83.50
2019-02-19T19:14:43.529Z,83.77
2019-02-19T19:17:19.315Z,83.59
2019-02-19T19:19:54.296Z,83.39
2019-02-19T19:22:29.308Z,83.19
2019-02-19T19:25:05.143Z,83.66
2019-02-19T19:27:40.997Z,83.69
2019-02-19T19:30:15.969Z,83.51
2019-02-19T19:32:51.796Z,83.28
2019-02-19T19:35:27.585Z,83.43
2019-02-19T19:38:02.510Z,83.50
2019-02-19T19:45:06.704Z,83.70
2019-02-19T19:47:41.628Z,83.88
2019-02-19T19:50:18.117Z,83.79
2019-02-19T19:52:53.913Z,84.59
2019-02-19T19:55:29.735Z,84.66
2019-02-19T19:58:06.670Z,84.07
2019-02-19T20:00:41.623Z,84.68
2019-02-19T20:03:18.493Z,84.90
2019-02-19T20:05:53.584Z,85.10
2019-02-19T20:08:28.583Z,84.82
2019-02-19T20:11:10.155Z,84.66
2019-02-19T20:13:45.883Z,84.67
2019-02-19T20:16:21.704Z,84.94
2019-02-19T20:18:56.616Z,84.81
2019-02-19T20:21:32.348Z,84.80
2019-02-19T20:24:10.401Z,84.50
2019-02-19T20:26:45.315Z,84.57
2019-02-19T20:29:20.349Z,84.88
2019-02-19T20:31:55.309Z,84.93
2019-02-19T20:34:31.049Z,85.09
2019-02-19T20:37:06.017Z,85.10
2019-02-19T20:39:41.002Z,84.94
2019-02-19T20:42:16.822Z,84.55
2019-02-19T20:44:54.493Z,85.10
2019-02-19T20:47:30.239Z,85.29
2019-02-19T20:50:05.609Z,85.13
2019-02-19T20:52:40.652Z,84.95
2019-02-19T20:55:15.653Z,85.13
2019-02-19T20:57:51.462Z,84.78
2019-02-19T21:00:27.276Z,84.75
2019-02-19T21:03:23.257Z,84.48
2019-02-19T21:05:59.134Z,84.62
2019-02-19T21:08:34.283Z,84.58
2019-02-19T21:11:09.211Z,84.50
2019-02-19T21:13:44.423Z,84.87
2019-02-19T21:16:26.267Z,84.47
2019-02-19T21:19:41.799Z,84.27
2019-02-19T21:22:28.028Z,84.36
2019-02-19T21:25:05.231Z,84.13
2019-02-19T21:27:44.597Z,84.49
2019-02-19T21:30:24.120Z,84.09
2019-02-19T21:32:59.936Z,83.92
2019-02-19T21:35:34.950Z,83.74
2019-02-19T21:38:09.938Z,83.80
2019-02-19T21:40:44.908Z,83.86
2019-02-19T21:43:21.177Z,84.04
2019-02-19T21:45:56.921Z,83.79
2019-02-19T21:48:31.845Z,83.35
2019-02-19T21:51:07.656Z,83.71
2019-02-19T21:53:42.664Z,83.65
2019-02-19T21:56:17.661Z,83.69
2019-02-19T21:58:53.505Z,83.73
2019-02-19T22:01:29.310Z,83.69
2019-02-19T22:04:04.778Z,83.71
2019-02-19T22:06:39.978Z,83.13
2019-02-19T22:09:14.952Z,83.66
2019-02-19T22:11:51.046Z,83.31
2019-02-19T22:15:01.978Z,83.42
2019-02-19T22:17:37.984Z,83.46
2019-02-19T22:20:32.474Z,83.49
2019-02-19T22:23:08.732Z,83.75
2019-02-19T22:25:43.658Z,83.55
2019-02-19T22:28:22.951Z,83.18
2019-02-19T22:30:57.996Z,82.83
2019-02-19T22:33:34.319Z,83.34
2019-02-19T22:36:14.061Z,83.35
2019-02-19T22:38:49.900Z,83.94
2019-02-19T22:41:24.782Z,84.05
2019-02-19T22:43:59.688Z,84.08
2019-02-19T22:46:35.056Z,84.03
2019-02-19T22:49:10.027Z,83.64
2019-02-19T22:51:44.920Z,83.53
2019-02-19T22:54:47.949Z,83.35
2019-02-19T22:57:22.982Z,83.40
2019-02-19T22:59:57.910Z,83.63
2019-02-19T23:02:33.387Z,83.42
2019-02-19T23:05:08.798Z,83.81
2019-02-19T23:07:44.588Z,84.00
2019-02-19T23:10:19.548Z,83.70
2019-02-19T23:12:54.598Z,83.74
2019-02-19T23:15:29.542Z,83.73
2019-02-19T23:18:05.256Z,83.74
2019-02-19T23:20:40.146Z,83.71
2019-02-19T23:23:15.921Z,83.70
2019-02-19T23:25:52.548Z,83.63
2019-02-19T23:28:44.006Z,83.15
2019-02-19T23:31:18.968Z,83.39
2019-02-19T23:33:53.875Z,83.05
2019-02-19T23:37:01.612Z,83.16
2019-02-19T23:39:43.403Z,83.28
2019-02-19T23:42:14.847Z,83.27
2019-02-19T23:44:50.608Z,82.85
2019-02-19T23:47:26.362Z,83.17
2019-02-19T23:50:01.246Z,83.35
2019-02-19T23:52:36.206Z,83.20
2019-02-19T23:55:11.016Z,83.61
2019-02-19T23:57:46.898Z,83.77
